createdAt,value
2019-05-26T17:30:10.842Z,1.70
2019-05-26T17:32:39.394Z,2.00
2019-05-26T17:35:09.545Z,1.70
2019-05-26T17:37:38.061Z,1.90
2019-05-26T17:40:07.136Z,1.90
2019-05-26T17:42:35.657Z,2.27
2019-05-26T17:45:06.415Z,1.90
2019-05-26T17:47:35.029Z,2.00
2019-05-26T17:50:07.333Z,2.53
2019-05-26T17:52:36.488Z,2.70
2019-05-26T17:55:07.678Z,3.17
2019-05-26T17:57:37.152Z,3.10
2019-05-26T18:00:10.933Z,3.20
2019-05-26T18:02:39.549Z,3.60
2019-05-26T18:05:08.443Z,3.20
2019-05-26T18:07:37.059Z,3.10
2019-05-26T18:10:07.828Z,3.33
2019-05-26T18:12:36.363Z,3.47
2019-05-26T18:15:07.312Z,3.70
2019-05-26T18:17:46.286Z,3.33
2019-05-26T18:20:07.129Z,3.77
2019-05-26T18:22:35.871Z,3.17
2019-05-26T18:25:06.846Z,3.43
2019-05-26T18:27:35.436Z,2.80
2019-05-26T18:30:09.266Z,2.40
2019-05-26T18:32:37.802Z,2.33
2019-05-26T18:35:07.394Z,2.77
2019-05-26T18:37:35.979Z,3.37
2019-05-26T18:40:06.168Z,3.63
2019-05-26T18:42:34.704Z,3.37
2019-05-26T18:45:05.746Z,3.20
2019-05-26T18:47:35.833Z,2.90
2019-05-26T18:50:06.153Z,3.33
2019-05-26T18:52:34.890Z,3.40
2019-05-26T18:55:03.773Z,3.87
2019-05-26T18:57:32.307Z,3.87
2019-05-26T19:00:00.829Z,3.93
2019-05-26T19:02:29.340Z,4.13
2019-05-26T19:04:57.820Z,3.73
2019-05-26T19:07:26.467Z,3.50
2019-05-26T19:09:54.998Z,3.93
2019-05-26T19:12:25.248Z,4.03
2019-05-26T19:14:53.752Z,3.40
2019-05-26T19:17:22.286Z,4.50
2019-05-26T19:19:50.823Z,4.10
2019-05-26T19:22:19.431Z,4.37
2019-05-26T19:24:48.334Z,3.60
2019-05-26T19:27:16.875Z,4.37
2019-05-26T19:29:45.402Z,4.90
2019-05-26T19:32:13.954Z,4.50
2019-05-26T19:34:42.555Z,4.50
2019-05-26T19:37:11.360Z,4.20
2019-05-26T19:39:39.829Z,4.83
2019-05-26T19:42:08.527Z,5.07
2019-05-26T19:44:37.253Z,5.40
2019-05-26T19:47:06.367Z,5.70
2019-05-26T19:49:34.836Z,4.97
2019-05-26T19:52:03.362Z,4.73
2019-05-26T19:54:31.958Z,4.40
2019-05-26T19:57:00.509Z,4.93
2019-05-26T19:59:29.088Z,3.97
2019-05-26T20:01:57.622Z,4.37
2019-05-26T20:04:26.103Z,3.27
2019-05-26T20:06:54.848Z,2.43
2019-05-26T20:09:23.396Z,2.40
2019-05-26T20:11:52.132Z,2.20
2019-05-26T20:14:21.026Z,2.60
2019-05-26T20:16:50.059Z,2.17
2019-05-26T20:19:18.519Z,2.03
2019-05-26T20:21:47.289Z,2.10
2019-05-26T20:24:15.795Z,2.20
2019-05-26T20:26:44.329Z,1.90
2019-05-26T20:29:12.838Z,1.50
2019-05-26T20:31:41.297Z,1.67
2019-05-26T20:34:09.763Z,1.50
2019-05-26T20:36:38.465Z,1.73
2019-05-26T20:39:08.951Z,1.37
2019-05-26T20:41:37.432Z,1.80
2019-05-26T20:44:06.002Z,1.80
2019-05-26T20:46:34.493Z,1.90
2019-05-26T20:49:03.076Z,1.30
2019-05-26T20:51:31.580Z,1.50
2019-05-26T20:54:00.047Z,1.40
2019-05-26T20:56:28.593Z,1.50
2019-05-26T20:58:57.105Z,1.50
2019-05-26T21:01:25.646Z,1.50
2019-05-26T21:03:54.118Z,1.70
2019-05-26T21:06:22.896Z,1.90
2019-05-26T21:08:51.432Z,1.70
2019-05-26T21:11:19.991Z,2.27
2019-05-26T21:13:48.867Z,2.10
2019-05-26T21:16:17.326Z,2.30
2019-05-26T21:18:45.848Z,2.33
2019-05-26T21:21:14.451Z,2.10
2019-05-26T21:23:43.041Z,2.47
2019-05-26T21:26:11.565Z,3.00
2019-05-26T21:28:40.065Z,2.67
2019-05-26T21:31:08.539Z,2.70
2019-05-26T21:33:37.085Z,2.83
2019-05-26T21:36:05.760Z,3.17
2019-05-26T21:38:34.288Z,3.13
2019-05-26T21:41:02.747Z,3.70
2019-05-26T21:43:31.322Z,3.90
2019-05-26T21:45:59.923Z,3.97
2019-05-26T21:48:28.465Z,3.83
2019-05-26T21:50:57.127Z,3.50
2019-05-26T21:53:25.669Z,3.40
2019-05-26T21:55:54.136Z,3.80
2019-05-26T21:58:22.651Z,3.80
2019-05-26T22:00:52.534Z,3.60
2019-05-26T22:03:21.201Z,3.60
2019-05-26T22:05:49.782Z,3.77
2019-05-26T22:08:18.428Z,2.43
2019-05-26T22:10:46.939Z,1.77
2019-05-26T22:13:15.632Z,1.70
2019-05-26T22:15:44.151Z,1.53
2019-05-26T22:18:12.612Z,1.47
2019-05-26T22:20:41.207Z,1.57
2019-05-26T22:23:09.740Z,1.40
2019-05-26T22:25:38.198Z,1.70
2019-05-26T22:28:06.723Z,1.70
2019-05-26T22:30:35.258Z,1.73
2019-05-26T22:33:03.792Z,1.80
2019-05-26T22:35:32.542Z,1.80
2019-05-26T22:38:01.028Z,1.80
2019-05-26T22:40:29.546Z,1.50
2019-05-26T22:42:58.059Z,1.47
2019-05-26T22:45:26.584Z,1.50
2019-05-26T22:47:55.183Z,1.70
2019-05-26T22:50:23.872Z,1.83
2019-05-26T22:52:52.767Z,2.20
2019-05-26T22:55:21.239Z,2.37
2019-05-26T22:57:49.813Z,2.40
2019-05-26T23:00:18.981Z,2.37
2019-05-26T23:02:47.512Z,2.43
2019-05-26T23:05:16.062Z,2.87
2019-05-26T23:07:44.512Z,2.93
2019-05-26T23:10:13.619Z,3.60
2019-05-26T23:12:42.212Z,3.23
2019-05-26T23:15:11.043Z,4.40
2019-05-26T23:17:39.633Z,3.83
2019-05-26T23:20:09.773Z,5.20
2019-05-26T23:22:38.295Z,6.27
2019-05-26T23:25:07.330Z,7.13
2019-05-26T23:27:36.215Z,7.23
2019-05-26T23:30:09.165Z,7.60
2019-05-26T23:32:37.631Z,8.37
2019-05-26T23:35:07.365Z,8.43
2019-05-26T23:37:36.170Z,9.70
2019-05-26T23:40:08.860Z,8.73
2019-05-26T23:42:37.363Z,8.97
2019-05-26T23:45:07.642Z,10.20
2019-05-26T23:47:36.201Z,10.43
2019-05-26T23:50:06.544Z,10.40
2019-05-26T23:52:35.028Z,11.00
2019-05-26T23:55:05.288Z,10.60
2019-05-26T23:57:33.782Z,11.20
